createdAt,value
2022-08-30T00:01:30.050Z,19.40
2022-08-30T00:03:58.343Z,19.30
2022-08-30T00:06:26.908Z,19.40
2022-08-30T00:08:53.935Z,19.50
2022-08-30T00:11:25.726Z,19.40
2022-08-30T00:13:54.261Z,19.30
2022-08-30T00:16:22.300Z,19.30
2022-08-30T00:18:49.115Z,19.20
2022-08-30T00:21:16.007Z,19.20
2022-08-30T00:23:42.694Z,19.10
2022-08-30T00:26:09.706Z,19.10
2022-08-30T00:28:37.267Z,19.00
2022-08-30T00:31:05.233Z,19.00
2022-08-30T00:33:32.066Z,19.00
2022-08-30T00:35:58.947Z,19.00
2022-08-30T00:38:25.701Z,18.90
2022-08-30T00:40:53.178Z,18.90
2022-08-30T00:43:27.867Z,18.80
2022-08-30T00:45:55.464Z,18.80
2022-08-30T00:48:23.256Z,18.80
2022-08-30T00:50:55.643Z,18.80
2022-08-30T00:53:30.572Z,18.80
2022-08-30T00:55:59.220Z,18.70
2022-08-30T00:58:31.656Z,18.70
2022-08-30T01:01:01.433Z,18.70
2022-08-30T01:03:29.066Z,18.70
2022-08-30T01:05:56.576Z,18.80
2022-08-30T01:08:23.304Z,18.80
2022-08-30T01:10:51.266Z,18.80
2022-08-30T01:13:19.346Z,18.80
2022-08-30T01:15:46.616Z,18.80
2022-08-30T01:18:17.326Z,18.80
2022-08-30T01:21:12.515Z,18.90
2022-08-30T01:23:43.544Z,18.80
2022-08-30T01:26:11.290Z,18.80
2022-08-30T01:28:39.964Z,18.80
2022-08-30T01:31:06.956Z,18.80
2022-08-30T01:33:36.320Z,18.80
2022-08-30T01:36:07.263Z,18.90
2022-08-30T01:38:42.906Z,18.90
2022-08-30T01:41:28.900Z,18.80
2022-08-30T01:43:58.180Z,18.80
2022-08-30T01:46:35.988Z,18.90
2022-08-30T01:49:11.623Z,18.90
2022-08-30T01:51:39.096Z,18.90
2022-08-30T01:54:06.644Z,18.90
2022-08-30T01:56:34.050Z,18.90
2022-08-30T01:59:03.039Z,18.90
2022-08-30T02:01:35.621Z,19.00
2022-08-30T02:04:03.052Z,19.00
2022-08-30T02:06:29.794Z,19.00
2022-08-30T02:08:56.462Z,19.00
2022-08-30T02:11:23.130Z,19.00
2022-08-30T02:13:50.142Z,19.00
2022-08-30T02:16:20.530Z,19.00
2022-08-30T02:18:47.586Z,18.90
2022-08-30T02:21:15.341Z,18.90
2022-08-30T02:23:42.797Z,18.90
2022-08-30T02:26:10.543Z,19.00
2022-08-30T02:28:49.506Z,19.00
2022-08-30T02:31:21.579Z,19.10
2022-08-30T02:33:53.614Z,19.10
2022-08-30T02:36:21.607Z,19.10
2022-08-30T02:38:49.459Z,19.10
2022-08-30T02:41:17.284Z,19.20
2022-08-30T02:43:44.074Z,19.10
2022-08-30T02:46:11.071Z,19.10
2022-08-30T02:48:37.816Z,19.10
2022-08-30T02:51:11.284Z,19.10
2022-08-30T02:53:39.706Z,19.10
2022-08-30T02:56:07.196Z,19.00
2022-08-30T02:58:34.874Z,19.00
2022-08-30T03:01:01.888Z,19.00
2022-08-30T03:03:28.946Z,19.10
2022-08-30T03:05:55.765Z,19.10
2022-08-30T03:08:22.783Z,19.10
2022-08-30T03:10:49.986Z,19.10
2022-08-30T03:13:16.854Z,19.00
2022-08-30T03:15:43.646Z,19.00
2022-08-30T03:18:10.877Z,19.00
2022-08-30T03:20:37.724Z,19.00
2022-08-30T03:23:04.727Z,19.00
2022-08-30T03:25:31.519Z,19.00
2022-08-30T03:27:58.178Z,19.00
2022-08-30T03:30:25.356Z,19.00
2022-08-30T03:32:52.222Z,19.10
2022-08-30T03:35:19.904Z,19.10
2022-08-30T03:37:47.223Z,19.10
2022-08-30T03:40:17.045Z,19.10
2022-08-30T03:42:46.510Z,19.10
2022-08-30T03:45:14.490Z,19.10
2022-08-30T03:47:41.903Z,19.10
2022-08-30T03:50:10.471Z,19.00
2022-08-30T03:52:37.312Z,19.00
2022-08-30T03:55:05.014Z,18.90
2022-08-30T03:57:32.258Z,18.90
2022-08-30T03:59:59.018Z,18.90
2022-08-30T04:02:25.789Z,18.80
2022-08-30T04:04:52.518Z,18.90
2022-08-30T04:07:19.432Z,18.80
2022-08-30T04:09:47.174Z,18.80
2022-08-30T04:12:13.914Z,18.70
2022-08-30T04:14:45.017Z,18.70
2022-08-30T04:17:11.982Z,18.70
2022-08-30T04:19:38.645Z,18.70
2022-08-30T04:22:05.984Z,18.70
2022-08-30T04:24:34.401Z,18.70
2022-08-30T04:27:01.487Z,18.70
2022-08-30T04:29:28.157Z,18.60
2022-08-30T04:31:54.886Z,18.60
2022-08-30T04:34:21.910Z,18.60
2022-08-30T04:36:49.317Z,18.60
2022-08-30T04:39:18.567Z,18.50
2022-08-30T04:41:45.535Z,18.50
2022-08-30T04:44:18.633Z,18.50
2022-08-30T04:46:46.698Z,18.40
2022-08-30T04:49:13.617Z,18.30
2022-08-30T04:51:40.634Z,18.30
2022-08-30T04:54:07.374Z,18.30
2022-08-30T04:56:34.708Z,18.30
2022-08-30T04:59:01.728Z,18.30
2022-08-30T05:01:30.955Z,18.30
2022-08-30T05:03:58.582Z,18.30
2022-08-30T05:06:27.777Z,18.20
2022-08-30T05:08:55.235Z,18.20
2022-08-30T05:11:22.936Z,18.20
2022-08-30T05:13:49.887Z,18.20
2022-08-30T05:16:18.589Z,18.20
2022-08-30T05:18:47.404Z,18.20
2022-08-30T05:21:25.331Z,18.30
2022-08-30T05:23:54.566Z,18.30
2022-08-30T05:26:25.307Z,18.30
2022-08-30T05:28:52.767Z,18.30
2022-08-30T05:31:22.800Z,18.30
2022-08-30T05:33:51.499Z,18.20
2022-08-30T05:36:20.222Z,18.20
2022-08-30T05:38:47.203Z,18.20
2022-08-30T05:41:14.459Z,18.20
2022-08-30T05:43:41.213Z,18.20
2022-08-30T05:46:13.455Z,18.20
2022-08-30T05:48:40.732Z,18.30
2022-08-30T05:51:11.327Z,18.30
2022-08-30T05:53:38.921Z,18.30
2022-08-30T05:56:08.799Z,18.30
2022-08-30T05:58:37.078Z,18.30
2022-08-30T06:01:04.099Z,18.30
2022-08-30T06:03:32.854Z,18.40
2022-08-30T06:06:00.626Z,18.60
2022-08-30T06:08:27.357Z,18.70
2022-08-30T06:10:54.050Z,18.90
2022-08-30T06:13:20.758Z,18.90
2022-08-30T06:15:47.645Z,19.10
2022-08-30T06:18:14.619Z,19.30
2022-08-30T06:20:42.881Z,19.30
2022-08-30T06:23:10.309Z,19.20
2022-08-30T06:25:41.968Z,19.20
2022-08-30T06:28:10.106Z,19.30
2022-08-30T06:30:39.408Z,19.50
2022-08-30T06:33:06.242Z,19.60
2022-08-30T06:35:38.188Z,19.90
2022-08-30T06:38:13.731Z,20.00
2022-08-30T06:40:40.472Z,20.20
2022-08-30T06:43:07.343Z,20.40
2022-08-30T06:45:35.092Z,20.60
2022-08-30T06:48:02.364Z,20.60
2022-08-30T06:50:29.135Z,20.80
2022-08-30T06:52:56.090Z,20.80
2022-08-30T06:55:23.772Z,20.90
2022-08-30T06:57:50.453Z,21.00
2022-08-30T07:00:17.517Z,20.90
2022-08-30T07:02:44.385Z,20.80
2022-08-30T07:05:15.370Z,20.80
2022-08-30T07:07:44.855Z,20.80
2022-08-30T07:10:11.612Z,20.80
2022-08-30T07:12:38.270Z,20.80
2022-08-30T07:15:06.173Z,20.90
2022-08-30T07:17:52.853Z,21.10
2022-08-30T07:20:21.437Z,21.20
2022-08-30T07:22:48.820Z,21.50
2022-08-30T07:25:16.330Z,21.90
2022-08-30T07:27:46.648Z,22.10
2022-08-30T07:30:13.970Z,22.30
2022-08-30T07:32:40.696Z,22.50
2022-08-30T07:35:07.654Z,22.50
2022-08-30T07:37:34.443Z,22.50
2022-08-30T07:40:02.396Z,22.60
2022-08-30T07:42:29.197Z,22.90
2022-08-30T07:44:56.951Z,23.10
2022-08-30T07:47:23.817Z,23.60
2022-08-30T07:49:50.690Z,23.90
2022-08-30T07:52:17.350Z,24.00
2022-08-30T07:54:44.131Z,24.10
2022-08-30T07:57:11.986Z,24.40
2022-08-30T07:59:38.783Z,24.30
2022-08-30T08:02:05.592Z,24.50
2022-08-30T08:04:33.113Z,24.50
2022-08-30T08:06:59.770Z,24.70
2022-08-30T08:09:26.744Z,24.90
2022-08-30T08:11:53.423Z,24.80
2022-08-30T08:14:21.607Z,24.90
2022-08-30T08:16:48.397Z,25.00
2022-08-30T08:19:15.889Z,25.20
2022-08-30T08:21:42.611Z,25.50
2022-08-30T08:24:09.390Z,25.60
2022-08-30T08:26:36.811Z,25.50
2022-08-30T08:29:07.923Z,25.40
2022-08-30T08:31:34.955Z,25.30
2022-08-30T08:34:05.402Z,25.10
2022-08-30T08:36:33.123Z,25.00
2022-08-30T08:39:00.227Z,25.00
2022-08-30T08:41:57.374Z,25.20
2022-08-30T08:44:45.115Z,25.30
2022-08-30T08:47:20.140Z,25.30
2022-08-30T08:49:52.023Z,25.40
2022-08-30T08:52:45.461Z,25.50
2022-08-30T08:55:14.569Z,25.60
2022-08-30T08:57:41.711Z,25.90
2022-08-30T09:00:11.966Z,26.20
2022-08-30T09:02:52.703Z,26.40
2022-08-30T09:05:26.019Z,26.40
2022-08-30T09:08:00.611Z,26.40
2022-08-30T09:10:49.436Z,26.40
2022-08-30T09:13:16.701Z,26.60
2022-08-30T09:15:45.957Z,26.50
2022-08-30T09:18:19.607Z,26.30
2022-08-30T09:20:49.458Z,26.40
2022-08-30T09:23:16.083Z,26.50
2022-08-30T09:26:03.515Z,26.80
2022-08-30T09:28:43.304Z,27.00
2022-08-30T09:31:26.765Z,27.20
2022-08-30T09:34:01.511Z,27.40
2022-08-30T09:36:33.083Z,27.50
2022-08-30T09:39:03.551Z,27.70
2022-08-30T09:41:42.479Z,27.70
2022-08-30T09:44:15.556Z,27.50
2022-08-30T09:46:51.075Z,27.40
2022-08-30T09:49:36.695Z,27.20
2022-08-30T09:52:13.123Z,26.90
2022-08-30T09:55:04.051Z,26.90
2022-08-30T09:57:56.014Z,26.90
2022-08-30T10:00:28.871Z,26.70
2022-08-30T10:03:40.322Z,26.90
2022-08-30T10:06:36.466Z,27.00
2022-08-30T10:09:22.488Z,27.00
2022-08-30T10:12:01.566Z,27.00
2022-08-30T10:14:37.506Z,27.00
2022-08-30T10:17:38.917Z,26.90
2022-08-30T10:20:46.120Z,26.80
2022-08-30T10:23:32.854Z,26.90
2022-08-30T10:26:14.406Z,27.20
2022-08-30T10:28:56.010Z,27.40
2022-08-30T10:32:00.560Z,27.50
2022-08-30T10:34:39.826Z,27.50
2022-08-30T10:37:28.437Z,27.30
2022-08-30T10:40:00.549Z,27.30
2022-08-30T10:42:36.686Z,27.20
2022-08-30T10:45:13.173Z,27.20
2022-08-30T10:47:47.214Z,27.30
2022-08-30T10:50:18.708Z,27.40
2022-08-30T10:52:57.787Z,27.50
2022-08-30T10:55:36.021Z,27.30
2022-08-30T10:58:06.860Z,27.30
2022-08-30T11:00:47.229Z,27.30
2022-08-30T11:03:36.225Z,27.30
2022-08-30T11:06:16.391Z,27.40
2022-08-30T11:09:06.088Z,27.50
2022-08-30T11:11:40.855Z,27.40
2022-08-30T11:14:11.627Z,27.50
2022-08-30T11:16:41.835Z,27.60
2022-08-30T11:19:35.827Z,27.70
2022-08-30T11:22:21.472Z,27.60
2022-08-30T11:25:13.945Z,27.80
2022-08-30T11:27:51.547Z,28.00
2022-08-30T11:30:24.392Z,27.90
2022-08-30T11:33:11.452Z,27.90
2022-08-30T11:35:48.116Z,28.00
2022-08-30T11:38:28.200Z,28.00
2022-08-30T11:40:54.828Z,28.20
2022-08-30T11:43:37.389Z,28.20
2022-08-30T11:46:27.571Z,28.30
2022-08-30T11:48:58.900Z,28.40
2022-08-30T11:54:54.000Z,28.30
2022-08-30T11:57:45.506Z,28.20
2022-08-30T12:00:29.239Z,28.20
2022-08-30T12:03:28.554Z,28.40
2022-08-30T12:06:01.810Z,28.40
2022-08-30T12:08:28.550Z,28.20
2022-08-30T12:11:08.955Z,28.00
2022-08-30T12:13:42.685Z,27.70
2022-08-30T12:16:20.754Z,27.70
2022-08-30T12:18:59.950Z,27.60
2022-08-30T12:21:44.650Z,27.70
2022-08-30T12:24:20.911Z,27.80
2022-08-30T12:26:51.262Z,27.90
2022-08-30T12:29:28.406Z,27.90
2022-08-30T12:31:58.240Z,27.70
2022-08-30T12:34:33.181Z,27.70
2022-08-30T12:37:04.906Z,27.60
2022-08-30T12:39:34.915Z,27.60
2022-08-30T12:42:19.035Z,27.60
2022-08-30T12:44:47.752Z,27.70
2022-08-30T12:47:23.859Z,27.70
2022-08-30T12:49:52.462Z,27.80
2022-08-30T12:52:29.244Z,27.80
2022-08-30T12:55:16.364Z,28.00
2022-08-30T12:58:00.796Z,28.10
2022-08-30T13:00:36.057Z,28.30
2022-08-30T13:03:16.505Z,28.20
2022-08-30T13:05:48.026Z,28.20
2022-08-30T13:08:25.130Z,28.20
2022-08-30T13:10:58.617Z,28.00
2022-08-30T13:13:34.476Z,28.00
2022-08-30T13:16:22.189Z,27.80
2022-08-30T13:18:50.462Z,27.70
2022-08-30T13:21:23.955Z,27.50
2022-08-30T13:23:56.479Z,27.60
2022-08-30T13:26:23.571Z,27.70
2022-08-30T13:29:00.724Z,27.70
2022-08-30T13:31:29.436Z,27.60
2022-08-30T13:33:58.390Z,27.50
2022-08-30T13:36:29.507Z,27.50
2022-08-30T13:38:58.424Z,27.60
2022-08-30T13:41:25.999Z,27.60
2022-08-30T13:44:14.088Z,27.70
2022-08-30T13:46:53.265Z,27.70
2022-08-30T13:49:43.528Z,27.60
2022-08-30T13:52:21.056Z,27.70
2022-08-30T13:54:50.517Z,27.70
2022-08-30T14:00:12.195Z,27.80
2022-08-30T14:02:44.357Z,27.80
2022-08-30T14:05:30.825Z,27.80
2022-08-30T14:08:00.499Z,27.80
2022-08-30T14:10:31.056Z,27.90
2022-08-30T14:13:04.828Z,27.90
2022-08-30T14:15:35.431Z,27.80
2022-08-30T14:18:06.743Z,27.70
2022-08-30T14:20:35.385Z,27.80
2022-08-30T14:23:07.637Z,27.90
2022-08-30T14:25:37.376Z,28.00
2022-08-30T14:28:04.283Z,27.90
2022-08-30T14:30:31.785Z,27.90
2022-08-30T14:32:59.988Z,27.90
2022-08-30T14:35:26.707Z,28.00
2022-08-30T14:37:54.364Z,28.10
2022-08-30T14:40:21.173Z,28.20
2022-08-30T14:42:48.048Z,28.20
2022-08-30T14:45:15.406Z,28.20
2022-08-30T14:47:42.069Z,28.20
2022-08-30T14:50:09.473Z,28.20
2022-08-30T14:52:36.637Z,28.20
2022-08-30T14:55:09.020Z,28.20
2022-08-30T14:57:38.393Z,28.10
2022-08-30T15:00:07.250Z,28.10
2022-08-30T15:02:33.928Z,28.00
2022-08-30T15:05:00.676Z,27.80
2022-08-30T15:07:27.705Z,27.70
2022-08-30T15:09:54.412Z,27.70
2022-08-30T15:12:21.334Z,27.80
2022-08-30T15:14:47.993Z,27.80
2022-08-30T15:17:17.674Z,27.70
2022-08-30T15:19:44.629Z,27.70
2022-08-30T15:22:11.338Z,27.60
2022-08-30T15:24:38.038Z,27.70
2022-08-30T15:27:04.888Z,27.80
2022-08-30T15:29:32.907Z,27.60
2022-08-30T15:32:00.924Z,27.50
2022-08-30T15:34:28.032Z,27.40
2022-08-30T15:36:55.765Z,27.40
2022-08-30T15:39:23.056Z,27.30
2022-08-30T15:41:54.716Z,27.30
2022-08-30T15:44:25.434Z,27.20
2022-08-30T15:46:52.513Z,27.20
2022-08-30T15:49:22.898Z,27.20
2022-08-30T15:51:51.658Z,27.10
2022-08-30T15:54:22.688Z,27.20
2022-08-30T15:56:49.390Z,27.10
2022-08-30T15:59:17.439Z,27.10
2022-08-30T16:01:47.359Z,27.00
2022-08-30T16:04:17.040Z,26.90
2022-08-30T16:06:46.307Z,26.90
2022-08-30T16:09:13.724Z,26.90
2022-08-30T16:11:40.495Z,26.90
2022-08-30T16:14:09.296Z,26.90
2022-08-30T16:16:38.134Z,26.90
2022-08-30T16:19:07.103Z,26.90
2022-08-30T16:21:36.819Z,26.90
2022-08-30T16:24:05.274Z,26.90
2022-08-30T16:26:33.489Z,26.80
2022-08-30T16:29:01.417Z,26.60
2022-08-30T16:31:29.864Z,26.50
2022-08-30T16:34:02.225Z,26.40
2022-08-30T16:36:29.526Z,26.40
2022-08-30T16:38:58.353Z,26.40
2022-08-30T16:41:25.756Z,26.30
2022-08-30T16:43:53.875Z,26.40
2022-08-30T16:46:27.853Z,26.30
2022-08-30T16:48:57.504Z,26.30
2022-08-30T16:51:27.023Z,26.20
2022-08-30T16:53:59.275Z,26.20
2022-08-30T16:56:29.772Z,26.10
2022-08-30T16:59:01.858Z,26.10
2022-08-30T17:01:32.200Z,25.90
2022-08-30T17:03:59.503Z,25.80
2022-08-30T17:06:26.899Z,25.70
2022-08-30T17:08:56.037Z,25.70
2022-08-30T17:11:24.095Z,25.70
2022-08-30T17:13:51.342Z,25.70
2022-08-30T17:16:27.287Z,25.60
2022-08-30T17:18:54.943Z,25.50
2022-08-30T17:21:21.885Z,25.40
2022-08-30T17:23:50.107Z,25.30
2022-08-30T17:26:18.177Z,25.20
2022-08-30T17:28:45.751Z,25.10
2022-08-30T17:31:12.594Z,25.00
2022-08-30T17:33:43.046Z,25.00
2022-08-30T17:36:12.733Z,24.90
2022-08-30T17:38:44.801Z,24.80
2022-08-30T17:41:12.607Z,24.70
2022-08-30T17:43:39.346Z,24.70
2022-08-30T17:46:08.882Z,24.60
2022-08-30T17:48:36.772Z,24.50
2022-08-30T17:51:03.692Z,24.50
2022-08-30T17:53:30.600Z,24.50
2022-08-30T17:55:59.080Z,24.40
2022-08-30T17:58:26.857Z,24.30
2022-08-30T18:00:56.903Z,24.20
2022-08-30T18:03:24.699Z,24.20
2022-08-30T18:05:51.371Z,24.20
2022-08-30T18:08:18.086Z,24.00
2022-08-30T18:10:45.019Z,24.00
2022-08-30T18:13:12.438Z,24.00
2022-08-30T18:15:39.557Z,23.90
2022-08-30T18:18:11.609Z,23.80
2022-08-30T18:20:39.546Z,23.80
2022-08-30T18:23:06.524Z,23.70
2022-08-30T18:25:34.104Z,23.70
2022-08-30T18:28:01.407Z,23.60
2022-08-30T18:30:33.548Z,23.50
2022-08-30T18:33:01.879Z,23.40
2022-08-30T18:35:29.671Z,23.30
2022-08-30T18:37:57.978Z,23.30
2022-08-30T18:40:24.876Z,23.30
2022-08-30T18:42:51.846Z,23.20
2022-08-30T18:45:19.022Z,23.20
2022-08-30T18:47:45.691Z,23.20
2022-08-30T18:50:12.529Z,23.10
2022-08-30T18:52:39.287Z,23.10
2022-08-30T18:55:07.447Z,23.10
2022-08-30T18:57:35.516Z,23.10
2022-08-30T19:00:03.614Z,23.00
2022-08-30T19:02:30.363Z,23.00
2022-08-30T19:04:57.086Z,22.90
2022-08-30T19:07:27.205Z,22.90
2022-08-30T19:09:58.934Z,22.90
2022-08-30T19:12:26.259Z,22.80
2022-08-30T19:14:54.414Z,22.80
2022-08-30T19:17:23.257Z,22.70
2022-08-30T19:19:52.197Z,22.70
2022-08-30T19:22:21.467Z,22.60
2022-08-30T19:24:50.045Z,22.60
2022-08-30T19:27:19.062Z,22.50
2022-08-30T19:29:53.811Z,22.50
2022-08-30T19:32:21.371Z,22.50
2022-08-30T19:34:49.013Z,22.50
2022-08-30T19:37:18.626Z,22.40
2022-08-30T19:39:46.770Z,22.40
2022-08-30T19:42:14.072Z,22.30
2022-08-30T19:44:40.799Z,22.30
2022-08-30T19:47:07.856Z,22.30
2022-08-30T19:49:35.735Z,22.20
2022-08-30T19:52:03.091Z,22.30
2022-08-30T19:54:30.367Z,22.20
2022-08-30T19:56:57.038Z,22.20
2022-08-30T19:59:23.794Z,22.10
2022-08-30T20:01:50.581Z,22.10
2022-08-30T20:04:17.533Z,22.10
2022-08-30T20:06:45.298Z,22.10
2022-08-30T20:09:13.235Z,22.00
2022-08-30T20:11:42.149Z,22.00
2022-08-30T20:14:10.195Z,21.90
2022-08-30T20:16:40.378Z,21.90
2022-08-30T20:19:10.460Z,21.90
2022-08-30T20:21:38.630Z,21.90
2022-08-30T20:24:09.523Z,21.80
2022-08-30T20:26:37.629Z,21.80
2022-08-30T20:29:05.786Z,21.70
2022-08-30T20:31:33.335Z,21.70
2022-08-30T20:34:00.684Z,21.70
2022-08-30T20:36:27.370Z,21.60
2022-08-30T20:38:54.032Z,21.60
2022-08-30T20:41:20.863Z,21.60
2022-08-30T20:43:48.764Z,21.60
2022-08-30T20:46:20.215Z,21.60
2022-08-30T20:48:47.623Z,21.60
2022-08-30T20:51:19.288Z,21.50
2022-08-30T20:53:46.283Z,21.50
2022-08-30T20:56:16.690Z,21.50
2022-08-30T20:58:43.834Z,21.50
2022-08-30T21:01:12.455Z,21.40
2022-08-30T21:03:40.791Z,21.40
2022-08-30T21:06:07.867Z,21.40
2022-08-30T21:08:35.069Z,21.30
2022-08-30T21:11:01.998Z,21.40
2022-08-30T21:13:28.754Z,21.40
2022-08-30T21:15:57.633Z,21.40
2022-08-30T21:18:32.800Z,21.30
2022-08-30T21:21:21.168Z,21.30
2022-08-30T21:23:49.627Z,21.20
2022-08-30T21:26:17.902Z,21.30
2022-08-30T21:28:49.469Z,21.30
2022-08-30T21:31:22.700Z,21.20
2022-08-30T21:33:51.438Z,21.20
2022-08-30T21:36:37.846Z,21.10
2022-08-30T21:39:06.018Z,21.10
2022-08-30T21:41:33.842Z,21.10
2022-08-30T21:44:03.280Z,21.00
2022-08-30T21:46:32.214Z,21.00
2022-08-30T21:49:01.455Z,21.00
2022-08-30T21:51:31.299Z,21.10
2022-08-30T21:53:58.189Z,21.00
2022-08-30T21:56:24.862Z,21.00
2022-08-30T21:58:51.716Z,21.00
2022-08-30T22:01:23.361Z,21.00
2022-08-30T22:03:52.380Z,21.00
2022-08-30T22:06:19.637Z,21.00
2022-08-30T22:08:47.875Z,21.00
2022-08-30T22:11:19.964Z,21.00
2022-08-30T22:13:48.628Z,21.00
2022-08-30T22:16:16.105Z,20.90
2022-08-30T22:18:43.408Z,21.00
2022-08-30T22:21:13.047Z,20.90
2022-08-30T22:23:40.267Z,20.90
2022-08-30T22:26:08.945Z,20.80
2022-08-30T22:28:36.640Z,20.80
2022-08-30T22:31:06.328Z,20.80
2022-08-30T22:33:33.762Z,20.80
2022-08-30T22:36:16.558Z,20.80
2022-08-30T22:38:44.154Z,20.80
2022-08-30T22:41:14.108Z,20.80
2022-08-30T22:43:40.940Z,20.80
2022-08-30T22:46:08.148Z,20.70
2022-08-30T22:48:40.525Z,20.80
2022-08-30T22:51:07.327Z,20.70
2022-08-30T22:53:34.488Z,20.70
2022-08-30T22:56:06.837Z,20.70
2022-08-30T22:58:33.763Z,20.60
2022-08-30T23:01:00.726Z,20.60
2022-08-30T23:03:27.814Z,20.60
2022-08-30T23:05:54.486Z,20.70
2022-08-30T23:08:21.142Z,20.70
2022-08-30T23:10:47.827Z,20.70
2022-08-30T23:13:14.475Z,20.60
2022-08-30T23:15:41.417Z,20.60
2022-08-30T23:18:08.063Z,20.60
2022-08-30T23:20:34.839Z,20.70
2022-08-30T23:23:01.633Z,20.70
2022-08-30T23:25:51.965Z,20.60
2022-08-30T23:28:39.097Z,20.50
2022-08-30T23:31:33.655Z,20.50
2022-08-30T23:34:19.702Z,20.50
2022-08-30T23:37:05.489Z,20.50
2022-08-30T23:39:50.910Z,20.60
2022-08-30T23:42:36.331Z,20.60
2022-08-30T23:45:21.856Z,20.50
2022-08-30T23:48:07.467Z,20.50
2022-08-30T23:50:52.836Z,20.50
2022-08-30T23:53:38.170Z,20.50
2022-08-30T23:56:30.949Z,20.50
2022-08-30T23:59:16.199Z,20.50
